createdAt,value
2019-02-12T00:00:34.453Z,102121.00
2019-02-12T00:03:04.328Z,102126.62
2019-02-12T00:05:33.915Z,102136.66
2019-02-12T00:08:03.470Z,102134.42
2019-02-12T00:10:32.989Z,102122.52
2019-02-12T00:13:02.498Z,102130.90
2019-02-12T00:15:32.108Z,102121.44
2019-02-12T00:18:01.620Z,102128.00
2019-02-12T00:20:31.146Z,102126.80
2019-02-12T00:23:00.818Z,102126.59
2019-02-12T00:25:30.353Z,102130.17
2019-02-12T00:27:59.833Z,102129.65
2019-02-12T00:30:29.470Z,102121.89
2019-02-12T00:32:58.976Z,102131.02
2019-02-12T00:35:28.546Z,102126.45
2019-02-12T00:37:58.091Z,102123.84
2019-02-12T00:40:27.688Z,102137.75
2019-02-12T00:42:57.209Z,102144.69
2019-02-12T00:45:27.026Z,102143.37
2019-02-12T00:47:56.623Z,102141.30
2019-02-12T00:50:26.118Z,102141.70
2019-02-12T00:52:55.661Z,102148.28
2019-02-12T00:55:25.165Z,102146.58
2019-02-12T00:57:54.681Z,102148.48
2019-02-12T01:00:24.223Z,102151.45
2019-02-12T01:02:53.723Z,102149.77
2019-02-12T01:05:23.214Z,102153.94
2019-02-12T01:07:52.899Z,102143.25
2019-02-12T01:10:22.462Z,102148.94
2019-02-12T01:12:51.973Z,102153.52
2019-02-12T01:15:21.593Z,102149.26
2019-02-12T01:17:51.157Z,102157.49
2019-02-12T01:20:20.657Z,102152.31
2019-02-12T01:22:50.188Z,102156.38
2019-02-12T01:25:19.717Z,102161.47
2019-02-12T01:27:49.230Z,102157.11
2019-02-12T01:30:19.044Z,102168.45
2019-02-12T01:32:48.584Z,102167.84
2019-02-12T01:35:18.117Z,102176.68
2019-02-12T01:37:47.636Z,102190.09
2019-02-12T01:40:17.150Z,102188.56
2019-02-12T01:42:46.652Z,102177.61
2019-02-12T01:45:16.181Z,102177.06
2019-02-12T01:47:45.775Z,102181.97
2019-02-12T01:50:15.371Z,102187.62
2019-02-12T01:52:45.110Z,102179.23
2019-02-12T01:55:14.625Z,102182.36
2019-02-12T01:57:44.142Z,102169.58
2019-02-12T02:00:15.029Z,102175.33
2019-02-12T02:02:44.615Z,102178.69
2019-02-12T02:05:14.129Z,102194.36
2019-02-12T02:07:44.230Z,102199.56
2019-02-12T02:10:17.038Z,102197.33
2019-02-12T02:12:46.698Z,102201.08
2019-02-12T02:15:17.169Z,102200.70
2019-02-12T02:17:46.735Z,102208.20
2019-02-12T02:20:16.586Z,102209.73
2019-02-12T02:22:46.128Z,102202.62
2019-02-12T02:25:15.759Z,102191.78
2019-02-12T02:27:45.269Z,102189.77
2019-02-12T02:30:16.466Z,102194.56
2019-02-12T02:32:47.189Z,102198.22
2019-02-12T02:35:16.789Z,102192.34
2019-02-12T02:37:46.740Z,102190.36
2019-02-12T02:40:16.300Z,102205.15
2019-02-12T02:42:45.931Z,102206.30
2019-02-12T02:45:15.865Z,102202.45
2019-02-12T02:47:45.445Z,102202.45
2019-02-12T02:50:15.127Z,102205.33
2019-02-12T02:52:44.677Z,102204.75
2019-02-12T02:55:14.551Z,102206.86
2019-02-12T02:57:44.080Z,102204.86
2019-02-12T03:00:14.532Z,102205.50
2019-02-12T03:02:44.039Z,102206.84
2019-02-12T03:05:14.103Z,102209.92
2019-02-12T03:07:43.713Z,102221.32
2019-02-12T03:10:13.363Z,102227.43
2019-02-12T03:12:42.949Z,102226.28
2019-02-12T03:15:12.944Z,102222.38
2019-02-12T03:17:43.012Z,102214.69
2019-02-12T03:20:14.469Z,102221.73
2019-02-12T03:22:43.976Z,102212.43
2019-02-12T03:25:13.617Z,102207.45
2019-02-12T03:27:43.181Z,102212.99
2019-02-12T03:30:13.739Z,102205.00
2019-02-12T03:32:43.301Z,102216.80
2019-02-12T03:35:13.270Z,102221.42
2019-02-12T03:37:42.767Z,102219.30
2019-02-12T03:40:13.069Z,102224.48
2019-02-12T03:42:42.760Z,102227.75
2019-02-12T03:45:14.402Z,102224.67
2019-02-12T03:47:43.999Z,102232.46
2019-02-12T03:50:13.791Z,102237.64
2019-02-12T03:52:43.362Z,102239.07
2019-02-12T03:55:14.311Z,102236.86
2019-02-12T03:57:44.547Z,102245.62
2019-02-12T04:00:16.476Z,102244.11
2019-02-12T04:02:59.769Z,102249.47
2019-02-12T04:05:29.410Z,102255.81
2019-02-12T04:07:58.985Z,102250.53
2019-02-12T04:10:28.640Z,102242.42
2019-02-12T04:12:58.211Z,102241.64
2019-02-12T04:15:27.734Z,102257.74
2019-02-12T04:17:58.292Z,102256.59
2019-02-12T04:20:27.806Z,102260.42
2019-02-12T04:22:57.308Z,102248.11
2019-02-12T04:25:26.855Z,102248.69
2019-02-12T04:27:56.385Z,102258.75
2019-02-12T04:30:26.043Z,102258.09
2019-02-12T04:32:55.576Z,102253.45
2019-02-12T04:35:25.374Z,102262.89
2019-02-12T04:37:54.892Z,102272.91
2019-02-12T04:40:24.498Z,102275.59
2019-02-12T04:42:54.035Z,102272.81
2019-02-12T04:45:23.568Z,102275.59
2019-02-12T04:47:53.091Z,102276.53
2019-02-12T04:50:22.595Z,102280.67
2019-02-12T04:52:52.118Z,102290.00
2019-02-12T04:55:21.643Z,102290.20
2019-02-12T04:57:51.154Z,102280.59
2019-02-12T05:00:20.722Z,102289.62
2019-02-12T05:02:53.092Z,102289.05
2019-02-12T05:05:22.696Z,102294.61
2019-02-12T05:07:52.202Z,102297.68
2019-02-12T05:10:38.701Z,102292.50
2019-02-12T05:13:08.232Z,102303.25
2019-02-12T05:15:38.203Z,102301.61
2019-02-12T05:18:09.678Z,102300.36
2019-02-12T05:20:39.668Z,102308.40
2019-02-12T05:23:10.785Z,102308.98
2019-02-12T05:25:40.404Z,102307.27
2019-02-12T05:28:09.927Z,102310.83
2019-02-12T05:30:39.448Z,102317.85
2019-02-12T05:33:09.058Z,102317.17
2019-02-12T05:35:38.803Z,102319.39
2019-02-12T05:38:08.348Z,102320.06
2019-02-12T05:40:37.946Z,102311.23
2019-02-12T05:43:07.591Z,102310.93
2019-02-12T05:45:37.237Z,102320.02
2019-02-12T05:48:06.874Z,102327.83
2019-02-12T05:50:36.461Z,102329.56
2019-02-12T05:53:06.768Z,102336.29
2019-02-12T05:55:36.727Z,102333.70
2019-02-12T05:58:06.277Z,102345.22
2019-02-12T06:00:36.146Z,102351.66
2019-02-12T06:03:05.827Z,102346.00
2019-02-12T06:05:35.402Z,102352.98
2019-02-12T06:08:04.896Z,102361.91
2019-02-12T06:10:34.438Z,102358.47
2019-02-12T06:13:04.020Z,102360.02
2019-02-12T06:15:34.217Z,102364.91
2019-02-12T06:18:03.845Z,102364.81
2019-02-12T06:20:33.348Z,102365.48
2019-02-12T06:23:04.129Z,102354.15
2019-02-12T06:25:34.354Z,102364.90
2019-02-12T06:28:03.874Z,102361.36
2019-02-12T06:30:33.374Z,102370.30
2019-02-12T06:33:07.618Z,102369.53
2019-02-12T06:35:35.766Z,102369.72
2019-02-12T06:38:05.468Z,102362.03
2019-02-12T06:40:35.067Z,102372.89
2019-02-12T06:43:04.591Z,102377.30
2019-02-12T06:45:34.173Z,102373.94
2019-02-12T06:48:03.681Z,102372.41
2019-02-12T06:50:33.195Z,102373.84
2019-02-12T06:53:02.784Z,102381.25
2019-02-12T06:55:32.780Z,102383.17
2019-02-12T06:58:02.300Z,102394.89
2019-02-12T07:00:31.893Z,102397.59
2019-02-12T07:03:14.150Z,102405.46
2019-02-12T07:06:04.236Z,102414.50
2019-02-12T07:08:58.597Z,102406.81
2019-02-12T07:12:07.602Z,102416.80
2019-02-12T07:14:53.586Z,102413.23
2019-02-12T07:17:56.470Z,102414.94
2019-02-12T07:20:48.630Z,102422.30
2019-02-12T07:23:44.095Z,102434.73
2019-02-12T07:26:54.261Z,102436.86
2019-02-12T07:29:47.524Z,102442.17
2019-02-12T07:32:50.222Z,102434.24
2019-02-12T07:35:39.749Z,102436.38
2019-02-12T07:38:29.565Z,102446.98
2019-02-12T07:41:07.149Z,102457.55
2019-02-12T07:44:25.472Z,102455.44
2019-02-12T07:47:11.013Z,102457.75
2019-02-12T07:49:54.278Z,102457.33
2019-02-12T07:52:34.361Z,102453.37
2019-02-12T07:55:48.127Z,102463.27
2019-02-12T07:58:25.283Z,102452.58
2019-02-12T08:01:36.665Z,102492.70
2019-02-12T08:04:31.909Z,102484.25
2019-02-12T08:07:11.425Z,102479.25
2019-02-12T08:10:15.389Z,102476.26
2019-02-12T08:13:10.809Z,102486.52
2019-02-12T08:16:13.332Z,102485.97
2019-02-12T08:19:02.413Z,102485.26
2019-02-12T08:21:39.167Z,102490.03
2019-02-12T08:24:34.447Z,102498.94
2019-02-12T08:27:26.492Z,102515.81
2019-02-12T08:30:33.411Z,102507.63
2019-02-12T08:33:27.865Z,102514.47
2019-02-12T08:36:08.003Z,102525.12
2019-02-12T08:39:04.854Z,102522.66
2019-02-12T08:42:04.349Z,102520.78
2019-02-12T08:44:38.600Z,102518.33
2019-02-12T08:47:46.043Z,102523.41
2019-02-12T08:50:57.800Z,102522.25
2019-02-12T08:53:51.197Z,102530.81
2019-02-12T08:56:46.946Z,102532.75
2019-02-12T09:00:06.105Z,102533.22
2019-02-12T09:02:58.367Z,102535.96
2019-02-12T09:05:38.113Z,102548.92
2019-02-12T09:08:46.437Z,102540.34
2019-02-12T09:11:41.757Z,102565.70
2019-02-12T09:14:21.952Z,102553.16
2019-02-12T09:17:10.970Z,102560.38
2019-02-12T09:20:05.671Z,102567.03
2019-02-12T09:22:46.145Z,102568.28
2019-02-12T09:25:27.147Z,102569.48
2019-02-12T09:28:16.373Z,102582.67
2019-02-12T09:31:14.025Z,102584.86
2019-02-12T09:34:13.673Z,102591.28
2019-02-12T09:37:23.984Z,102585.09
2019-02-12T09:40:19.214Z,102596.03
2019-02-12T09:43:16.767Z,102601.09
2019-02-12T09:46:29.921Z,102594.67
2019-02-12T09:49:14.284Z,102601.20
2019-02-12T09:52:04.817Z,102611.12
2019-02-12T09:54:47.717Z,102614.98
2019-02-12T09:57:43.104Z,102625.27
2019-02-12T10:00:42.921Z,102619.06
2019-02-12T10:03:34.946Z,102629.87
2019-02-12T10:06:21.318Z,102634.54
2019-02-12T10:09:04.479Z,102639.07
2019-02-12T10:12:20.929Z,102637.05
2019-02-12T10:15:17.653Z,102628.46
2019-02-12T10:18:15.807Z,102628.52
2019-02-12T10:20:55.744Z,102638.48
2019-02-12T10:23:51.039Z,102635.11
2019-02-12T10:26:39.931Z,102637.90
2019-02-12T10:29:22.490Z,102649.34
2019-02-12T10:31:50.442Z,102649.37
2019-02-12T10:34:19.987Z,102656.57
2019-02-12T10:36:49.826Z,102649.82
2019-02-12T10:39:19.520Z,102654.60
2019-02-12T10:41:49.125Z,102648.03
2019-02-12T10:44:18.677Z,102664.20
2019-02-12T10:46:48.186Z,102674.56
2019-02-12T10:49:17.830Z,102677.05
2019-02-12T10:51:47.505Z,102685.88
2019-02-12T10:54:17.006Z,102688.72
2019-02-12T10:56:46.662Z,102687.73
2019-02-12T10:59:16.417Z,102683.61
2019-02-12T11:01:46.155Z,102690.70
2019-02-12T11:04:15.791Z,102676.19
2019-02-12T11:06:45.321Z,102665.34
2019-02-12T11:09:15.221Z,102657.70
2019-02-12T11:11:44.723Z,102662.60
2019-02-12T11:14:14.289Z,102659.41
2019-02-12T11:16:44.099Z,102664.73
2019-02-12T11:19:13.802Z,102661.05
2019-02-12T11:21:43.532Z,102666.44
2019-02-12T11:24:13.068Z,102669.95
2019-02-12T11:26:42.721Z,102667.28
2019-02-12T11:29:12.243Z,102663.39
2019-02-12T11:31:41.762Z,102657.95
2019-02-12T11:34:11.289Z,102660.52
2019-02-12T11:36:40.888Z,102652.03
2019-02-12T11:39:10.468Z,102650.83
2019-02-12T11:41:40.421Z,102642.63
2019-02-12T11:44:10.082Z,102637.16
2019-02-12T11:46:39.610Z,102641.07
2019-02-12T11:49:09.096Z,102634.66
2019-02-12T11:51:38.746Z,102646.05
2019-02-12T11:54:08.310Z,102649.14
2019-02-12T11:56:37.828Z,102659.59
2019-02-12T11:59:07.352Z,102657.75
2019-02-12T12:01:36.856Z,102663.03
2019-02-12T12:04:06.670Z,102652.00
2019-02-12T12:06:36.484Z,102652.55
2019-02-12T12:09:06.942Z,102655.20
2019-02-12T12:11:36.456Z,102654.41
2019-02-12T12:14:06.520Z,102651.85
2019-02-12T12:16:36.019Z,102655.58
2019-02-12T12:19:05.608Z,102670.52
2019-02-12T12:21:35.151Z,102668.00
2019-02-12T12:24:04.656Z,102664.20
2019-02-12T12:26:34.155Z,102667.50
2019-02-12T12:29:04.078Z,102674.17
2019-02-12T12:31:33.577Z,102667.16
2019-02-12T12:34:03.157Z,102668.96
2019-02-12T12:36:32.687Z,102668.50
2019-02-12T12:39:02.209Z,102667.37
2019-02-12T12:41:31.702Z,102675.20
2019-02-12T12:44:02.607Z,102677.33
2019-02-12T12:46:32.241Z,102679.05
2019-02-12T12:49:01.755Z,102681.72
2019-02-12T12:51:31.710Z,102679.28
2019-02-12T12:54:01.210Z,102691.14
2019-02-12T12:56:30.731Z,102693.30
2019-02-12T12:59:00.705Z,102693.73
2019-02-12T13:01:30.704Z,102685.37
2019-02-12T13:04:00.246Z,102688.88
2019-02-12T13:06:29.769Z,102675.05
2019-02-12T13:08:59.290Z,102680.87
2019-02-12T13:11:28.892Z,102674.17
2019-02-12T13:13:58.484Z,102675.89
2019-02-12T13:16:27.980Z,102673.03
2019-02-12T13:18:57.580Z,102679.43
2019-02-12T13:21:27.108Z,102669.47
2019-02-12T13:23:56.658Z,102679.09
2019-02-12T13:26:27.216Z,102677.67
2019-02-12T13:28:56.753Z,102677.22
2019-02-12T13:31:26.271Z,102673.91
2019-02-12T13:33:55.772Z,102677.55
2019-02-12T13:36:25.681Z,102687.20
2019-02-12T13:38:55.196Z,102689.50
2019-02-12T13:41:24.761Z,102700.91
2019-02-12T13:43:54.329Z,102691.60
2019-02-12T13:46:25.293Z,102700.86
2019-02-12T13:48:54.879Z,102707.88
2019-02-12T13:51:24.539Z,102705.28
2019-02-12T13:53:54.065Z,102712.29
2019-02-12T13:56:23.653Z,102716.08
2019-02-12T13:58:53.567Z,102711.63
2019-02-12T14:01:23.082Z,102717.42
2019-02-12T14:03:52.720Z,102712.42
2019-02-12T14:06:22.328Z,102713.12
2019-02-12T14:08:51.879Z,102704.44
2019-02-12T14:11:21.446Z,102708.94
2019-02-12T14:13:51.059Z,102710.33
2019-02-12T14:16:20.561Z,102715.87
2019-02-12T14:18:50.086Z,102721.02
2019-02-12T14:21:19.663Z,102722.69
2019-02-12T14:23:49.174Z,102717.38
2019-02-12T14:26:19.133Z,102725.17
2019-02-12T14:28:48.673Z,102725.53
2019-02-12T14:31:18.170Z,102729.27
2019-02-12T14:33:47.686Z,102737.30
2019-02-12T14:36:17.185Z,102730.77
2019-02-12T14:38:46.711Z,102731.28
2019-02-12T14:41:16.253Z,102726.88
2019-02-12T14:43:45.862Z,102734.27
2019-02-12T14:46:15.430Z,102729.23
2019-02-12T14:48:44.924Z,102720.62
2019-02-12T14:51:14.483Z,102729.66
2019-02-12T14:53:44.009Z,102732.83
2019-02-12T14:56:13.555Z,102728.99
2019-02-12T14:58:44.247Z,102719.80
2019-02-12T15:01:14.009Z,102722.95
2019-02-12T15:03:43.478Z,102719.77
2019-02-12T15:06:13.457Z,102719.17
2019-02-12T15:08:43.161Z,102721.01
2019-02-12T15:11:12.683Z,102728.83
2019-02-12T15:13:42.219Z,102736.61
2019-02-12T15:16:11.724Z,102730.34
2019-02-12T15:18:41.413Z,102736.77
2019-02-12T15:21:10.994Z,102731.33
2019-02-12T15:23:40.521Z,102730.66
2019-02-12T15:26:10.108Z,102736.00
2019-02-12T15:28:39.775Z,102734.09
2019-02-12T15:31:09.290Z,102734.11
2019-02-12T15:33:38.801Z,102727.61
2019-02-12T15:36:08.342Z,102737.91
2019-02-12T15:38:37.854Z,102735.39
2019-02-12T15:41:07.389Z,102746.76
2019-02-12T15:43:37.034Z,102737.63
2019-02-12T15:46:06.539Z,102740.95
2019-02-12T15:48:36.118Z,102746.52
2019-02-12T15:51:05.916Z,102750.22
2019-02-12T15:53:35.407Z,102752.14
2019-02-12T15:56:05.000Z,102752.52
2019-02-12T15:58:34.623Z,102753.53
2019-02-12T16:01:05.980Z,102752.95
2019-02-12T16:03:36.476Z,102763.59
2019-02-12T16:06:07.300Z,102768.79
2019-02-12T16:08:36.817Z,102766.98
2019-02-12T16:11:06.362Z,102766.45
2019-02-12T16:13:36.707Z,102762.14
2019-02-12T16:16:07.825Z,102761.64
2019-02-12T16:18:37.755Z,102763.14
2019-02-12T16:21:07.310Z,102760.86
2019-02-12T16:23:36.801Z,102760.95
2019-02-12T16:26:06.468Z,102757.12
2019-02-12T16:28:36.108Z,102761.79
2019-02-12T16:31:05.659Z,102768.27
2019-02-12T16:33:35.166Z,102770.60
2019-02-12T16:36:04.712Z,102777.98
2019-02-12T16:38:34.288Z,102772.03
2019-02-12T16:41:03.864Z,102773.47
2019-02-12T16:43:33.847Z,102782.27
2019-02-12T16:46:17.152Z,102772.94
2019-02-12T16:48:47.007Z,102779.63
2019-02-12T16:51:16.653Z,102771.70
2019-02-12T16:53:46.227Z,102770.80
2019-02-12T16:56:15.765Z,102769.36
2019-02-12T16:58:45.252Z,102778.03
2019-02-12T17:01:14.762Z,102778.25
2019-02-12T17:03:44.299Z,102780.47
2019-02-12T17:06:13.887Z,102781.91
2019-02-12T17:08:43.526Z,102789.61
2019-02-12T17:11:14.390Z,102781.07
2019-02-12T17:13:43.965Z,102773.30
2019-02-12T17:16:13.582Z,102772.40
2019-02-12T17:18:43.111Z,102771.64
2019-02-12T17:21:12.663Z,102768.61
2019-02-12T17:23:42.219Z,102770.23
2019-02-12T17:26:16.418Z,102773.42
2019-02-12T17:28:43.317Z,102773.42
2019-02-12T17:31:12.831Z,102769.67
2019-02-12T17:33:44.384Z,102773.67
2019-02-12T17:36:13.875Z,102780.72
2019-02-12T17:38:45.390Z,102779.02
2019-02-12T17:41:15.007Z,102777.31
2019-02-12T17:43:44.566Z,102780.75
2019-02-12T17:46:14.087Z,102784.25
2019-02-12T17:48:43.651Z,102776.45
2019-02-12T17:51:13.169Z,102775.00
2019-02-12T17:53:42.832Z,102774.02
2019-02-12T17:56:13.603Z,102781.20
2019-02-12T17:58:43.097Z,102783.87
2019-02-12T18:01:12.611Z,102778.74
2019-02-12T18:03:42.193Z,102776.31
2019-02-12T18:06:11.692Z,102778.50
2019-02-12T18:08:41.231Z,102772.05
2019-02-12T18:11:10.756Z,102765.47
2019-02-12T18:13:40.296Z,102759.58
2019-02-12T18:16:09.877Z,102766.50
2019-02-12T18:18:39.520Z,102757.50
2019-02-12T18:21:09.045Z,102762.56
2019-02-12T18:23:38.633Z,102757.97
2019-02-12T18:26:08.169Z,102760.25
2019-02-12T18:28:37.706Z,102752.56
2019-02-12T18:31:07.206Z,102762.59
2019-02-12T18:33:36.778Z,102771.09
2019-02-12T18:36:06.283Z,102768.39
2019-02-12T18:38:35.862Z,102772.63
2019-02-12T18:41:05.539Z,102769.86
2019-02-12T18:43:35.186Z,102766.30
2019-02-12T18:46:04.690Z,102768.59
2019-02-12T18:48:34.420Z,102767.61
2019-02-12T18:51:04.055Z,102766.92
2019-02-12T18:53:33.563Z,102769.94
2019-02-12T18:56:03.116Z,102767.62
2019-02-12T18:58:32.637Z,102765.33
2019-02-12T19:01:02.218Z,102772.65
2019-02-12T19:03:32.241Z,102766.57
2019-02-12T19:06:01.782Z,102764.08
2019-02-12T19:08:31.437Z,102755.89
2019-02-12T19:11:00.963Z,102758.75
2019-02-12T19:13:30.564Z,102757.78
2019-02-12T19:16:00.190Z,102749.11
2019-02-12T19:18:29.729Z,102750.49
2019-02-12T19:20:59.450Z,102749.14
2019-02-12T19:23:28.961Z,102750.75
2019-02-12T19:25:58.848Z,102748.37
2019-02-12T19:28:28.449Z,102749.63
2019-02-12T19:30:58.044Z,102749.41
2019-02-12T19:33:27.595Z,102754.05
2019-02-12T19:35:57.117Z,102755.02
2019-02-12T19:38:26.646Z,102755.66
2019-02-12T19:40:56.180Z,102755.86
2019-02-12T19:43:25.777Z,102752.77
2019-02-12T19:45:55.615Z,102752.20
2019-02-12T19:48:25.538Z,102754.53
2019-02-12T19:50:55.026Z,102755.87
2019-02-12T19:53:24.597Z,102756.85
2019-02-12T19:55:54.155Z,102755.28
2019-02-12T19:58:23.667Z,102749.02
2019-02-12T20:00:53.262Z,102753.16
2019-02-12T20:03:22.818Z,102754.41
2019-02-12T20:05:52.322Z,102750.26
2019-02-12T20:08:21.987Z,102741.80
2019-02-12T20:10:51.719Z,102756.17
2019-02-12T20:13:21.242Z,102745.86
2019-02-12T20:15:50.819Z,102746.61
2019-02-12T20:18:20.363Z,102739.09
2019-02-12T20:20:49.874Z,102754.03
2019-02-12T20:23:22.317Z,102741.22
2019-02-12T20:25:51.846Z,102738.14
2019-02-12T20:28:21.365Z,102739.29
2019-02-12T20:30:50.867Z,102741.63
2019-02-12T20:33:20.877Z,102743.53
2019-02-12T20:35:50.445Z,102740.84
2019-02-12T20:38:20.021Z,102739.09
2019-02-12T20:40:49.583Z,102745.48
2019-02-12T20:43:19.090Z,102739.70
2019-02-12T20:45:48.659Z,102739.48
2019-02-12T20:48:18.209Z,102743.72
2019-02-12T20:50:47.735Z,102733.54
2019-02-12T20:53:17.271Z,102739.12
2019-02-12T20:55:47.281Z,102738.55
2019-02-12T20:58:16.788Z,102735.82
2019-02-12T21:00:46.363Z,102740.45
2019-02-12T21:03:15.971Z,102736.62
2019-02-12T21:05:45.549Z,102737.75
2019-02-12T21:08:15.383Z,102750.37
2019-02-12T21:10:45.049Z,102744.69
2019-02-12T21:13:20.567Z,102741.98
2019-02-12T21:15:50.385Z,102743.62
2019-02-12T21:18:20.093Z,102738.91
2019-02-12T21:20:49.757Z,102738.71
2019-02-12T21:23:19.517Z,102730.53
2019-02-12T21:25:49.207Z,102733.70
2019-02-12T21:28:18.979Z,102738.14
2019-02-12T21:30:48.671Z,102748.08
2019-02-12T21:33:18.722Z,102741.80
2019-02-12T21:35:48.644Z,102741.52
2019-02-12T21:38:19.325Z,102738.62
2019-02-12T21:40:48.834Z,102742.59
2019-02-12T21:43:18.501Z,102750.09
2019-02-12T21:45:49.375Z,102749.32
2019-02-12T21:48:19.101Z,102751.23
2019-02-12T21:50:48.834Z,102755.67
2019-02-12T21:53:18.449Z,102747.69
2019-02-12T21:55:48.059Z,102746.14
2019-02-12T21:58:17.566Z,102756.66
2019-02-12T22:00:47.327Z,102745.48
2019-02-12T22:03:17.398Z,102749.81
2019-02-12T22:05:46.923Z,102750.09
2019-02-12T22:08:16.484Z,102759.74
2019-02-12T22:10:46.694Z,102763.30
2019-02-12T22:13:16.449Z,102758.78
2019-02-12T22:15:46.086Z,102754.24
2019-02-12T22:18:15.588Z,102753.95
2019-02-12T22:20:45.134Z,102756.84
2019-02-12T22:23:14.956Z,102753.84
2019-02-12T22:25:44.519Z,102758.48
2019-02-12T22:28:14.048Z,102750.39
2019-02-12T22:30:43.653Z,102753.56
2019-02-12T22:33:13.173Z,102750.77
2019-02-12T22:35:42.696Z,102750.19
2019-02-12T22:38:12.261Z,102736.02
2019-02-12T22:40:41.747Z,102746.80
2019-02-12T22:43:11.262Z,102742.75
2019-02-12T22:45:41.016Z,102746.24
2019-02-12T22:48:10.575Z,102743.43
2019-02-12T22:50:40.074Z,102738.45
2019-02-12T22:53:09.632Z,102742.95
2019-02-12T22:55:39.218Z,102756.27
2019-02-12T22:58:08.813Z,102761.66
2019-02-12T23:00:49.212Z,102756.34
2019-02-12T23:03:19.397Z,102764.52
2019-02-12T23:05:49.381Z,102758.75
2019-02-12T23:08:18.900Z,102753.45
2019-02-12T23:10:48.509Z,102764.95
2019-02-12T23:13:18.078Z,102763.97
2019-02-12T23:15:47.757Z,102769.15
2019-02-12T23:18:17.278Z,102757.88
2019-02-12T23:20:46.858Z,102766.73
2019-02-12T23:23:16.832Z,102770.40
2019-02-12T23:25:46.334Z,102759.71
2019-02-12T23:28:15.938Z,102763.08
2019-02-12T23:30:45.898Z,102778.43
2019-02-12T23:33:15.415Z,102782.84
2019-02-12T23:35:44.926Z,102782.28
2019-02-12T23:38:14.449Z,102764.23
2019-02-12T23:40:43.977Z,102771.11
2019-02-12T23:43:13.479Z,102771.09
2019-02-12T23:45:43.136Z,102770.41
2019-02-12T23:48:13.346Z,102759.16
2019-02-12T23:50:42.939Z,102762.34
2019-02-12T23:53:12.470Z,102751.75
2019-02-12T23:55:42.208Z,102747.38
2019-02-12T23:58:11.702Z,102751.45
